createdAt,value
2022-10-05T00:01:39.406Z,7.37
2022-10-05T00:06:44.199Z,5.35
2022-10-05T00:11:47.148Z,5.55
2022-10-05T00:16:49.473Z,7.60
2022-10-05T00:26:57.810Z,7.40
2022-10-05T00:32:00.049Z,8.20
2022-10-05T00:37:01.946Z,7.22
2022-10-05T00:42:09.574Z,7.90
2022-10-05T00:47:34.847Z,8.57
2022-10-05T00:52:54.617Z,7.80
2022-10-05T00:58:19.293Z,6.38
2022-10-05T01:03:49.112Z,7.97
2022-10-05T01:09:15.385Z,7.55
2022-10-05T01:14:27.661Z,7.45
2022-10-05T01:20:11.255Z,6.82
2022-10-05T01:25:35.689Z,6.78
2022-10-05T01:30:51.204Z,7.13
2022-10-05T01:36:00.407Z,6.05
2022-10-05T01:41:19.599Z,6.63
2022-10-05T01:46:32.366Z,5.43
2022-10-05T01:51:43.184Z,6.70
2022-10-05T01:57:05.694Z,5.67
2022-10-05T02:02:14.242Z,5.82
2022-10-05T02:07:29.991Z,7.68
2022-10-05T02:12:37.288Z,6.32
2022-10-05T02:17:48.374Z,6.85
2022-10-05T02:22:54.857Z,7.50
2022-10-05T02:28:13.086Z,6.10
2022-10-05T02:33:25.747Z,7.43
2022-10-05T02:38:43.851Z,8.43
2022-10-05T02:44:09.266Z,6.15
2022-10-05T02:49:20.205Z,6.25
2022-10-05T02:54:49.124Z,6.78
2022-10-05T03:00:04.171Z,4.00
2022-10-05T03:05:20.598Z,3.50
2022-10-05T03:10:53.873Z,4.07
2022-10-05T03:16:23.663Z,5.18
2022-10-05T03:21:25.530Z,4.57
2022-10-05T03:26:44.577Z,5.53
2022-10-05T03:31:56.522Z,8.15
2022-10-05T03:37:15.336Z,5.20
2022-10-05T03:42:37.011Z,4.20
2022-10-05T03:48:07.083Z,4.55
2022-10-05T03:53:16.634Z,4.18
2022-10-05T03:58:57.448Z,4.10
2022-10-05T04:04:04.275Z,5.93
2022-10-05T04:09:15.013Z,7.72
2022-10-05T04:14:24.004Z,4.43
2022-10-05T04:19:34.464Z,4.90
2022-10-05T04:24:45.640Z,4.88
2022-10-05T04:29:59.026Z,4.95
2022-10-05T04:35:24.628Z,7.75
2022-10-05T04:40:42.621Z,5.30
2022-10-05T04:45:50.513Z,5.55
2022-10-05T04:51:02.183Z,4.57
2022-10-05T04:56:15.493Z,4.32
2022-10-05T05:01:41.219Z,4.82
2022-10-05T05:07:09.956Z,6.07
2022-10-05T05:12:37.478Z,5.10
2022-10-05T05:18:03.730Z,4.85
2022-10-05T05:23:35.394Z,4.57
2022-10-05T05:29:06.807Z,4.93
2022-10-05T05:34:38.554Z,5.32
2022-10-05T05:39:53.746Z,4.95
2022-10-05T05:45:01.630Z,6.47
2022-10-05T05:50:24.542Z,8.48
2022-10-05T05:55:30.604Z,8.93
2022-10-05T06:00:44.170Z,7.97
2022-10-05T06:05:54.338Z,6.45
2022-10-05T06:11:04.558Z,8.20
2022-10-05T06:16:30.630Z,6.82
2022-10-05T06:21:42.172Z,6.65
2022-10-05T06:27:21.486Z,6.28
2022-10-05T06:32:34.855Z,6.18
2022-10-05T06:37:52.968Z,8.82
2022-10-05T06:43:10.052Z,8.88
2022-10-05T06:48:48.842Z,7.70
2022-10-05T06:54:32.908Z,7.05
2022-10-05T06:59:56.973Z,7.38
2022-10-05T07:05:06.433Z,7.43
2022-10-05T07:10:34.852Z,7.03
2022-10-05T07:15:44.220Z,8.90
2022-10-05T07:21:00.015Z,8.80
2022-10-05T07:26:12.387Z,8.93
2022-10-05T07:31:43.767Z,7.93
2022-10-05T07:37:18.590Z,7.47
2022-10-05T07:42:29.972Z,5.82
2022-10-05T07:47:54.100Z,6.63
2022-10-05T07:53:20.999Z,6.50
2022-10-05T07:58:28.059Z,6.00
2022-10-05T08:03:40.214Z,5.40
2022-10-05T08:08:51.313Z,4.60
2022-10-05T08:14:00.661Z,4.57
2022-10-05T08:19:19.887Z,3.67
2022-10-05T08:24:45.699Z,3.97
2022-10-05T08:29:58.595Z,3.50
2022-10-05T08:35:34.213Z,3.80
2022-10-05T08:41:21.297Z,3.28
2022-10-05T08:47:07.876Z,4.15
2022-10-05T08:52:37.413Z,4.82
2022-10-05T08:58:04.159Z,4.40
2022-10-05T09:03:24.722Z,4.03
2022-10-05T09:08:48.479Z,4.00
2022-10-05T09:14:28.290Z,2.40
2022-10-05T09:19:48.158Z,2.40
2022-10-05T09:24:50.489Z,2.80
2022-10-05T09:30:36.699Z,2.53
2022-10-05T09:36:09.107Z,2.88
2022-10-05T09:41:25.486Z,2.93
2022-10-05T09:46:43.019Z,2.88
2022-10-05T09:52:03.272Z,2.78
2022-10-05T09:57:22.240Z,3.00
2022-10-05T10:02:56.482Z,2.83
2022-10-05T10:08:25.087Z,2.78
2022-10-05T10:13:55.773Z,2.90
2022-10-05T10:19:24.031Z,2.85
2022-10-05T10:25:03.430Z,2.63
2022-10-05T10:30:18.915Z,2.83
2022-10-05T10:35:34.573Z,2.95
2022-10-05T10:40:51.468Z,3.10
2022-10-05T10:46:25.243Z,3.65
2022-10-05T10:51:44.999Z,4.72
2022-10-05T10:57:05.464Z,2.90
2022-10-05T11:02:22.305Z,4.10
2022-10-05T11:07:42.275Z,3.10
2022-10-05T11:13:12.373Z,4.60
2022-10-05T11:18:24.196Z,2.55
2022-10-05T11:23:41.893Z,2.90
2022-10-05T11:29:30.172Z,2.33
2022-10-05T11:35:08.618Z,2.40
2022-10-05T11:40:47.636Z,2.25
2022-10-05T11:46:14.171Z,2.08
2022-10-05T11:51:29.047Z,2.47
2022-10-05T11:57:06.346Z,2.20
2022-10-05T12:02:40.052Z,1.95
2022-10-05T12:08:07.279Z,2.10
2022-10-05T12:13:25.206Z,1.80
2022-10-05T12:18:33.945Z,2.00
2022-10-05T12:24:01.654Z,1.77
2022-10-05T12:29:07.673Z,1.80
2022-10-05T12:35:01.514Z,2.03
2022-10-05T12:40:25.263Z,1.90
2022-10-05T12:45:38.937Z,1.65
2022-10-05T12:50:43.444Z,1.70
2022-10-05T12:55:51.184Z,1.70
2022-10-05T13:00:57.318Z,1.70
2022-10-05T13:06:23.386Z,1.83
2022-10-05T13:11:43.870Z,1.85
2022-10-05T13:16:55.037Z,1.65
2022-10-05T13:22:15.105Z,2.03
2022-10-05T13:27:35.627Z,1.80
2022-10-05T13:32:45.391Z,1.60
2022-10-05T13:37:52.993Z,1.58
2022-10-05T13:43:04.064Z,1.58
2022-10-05T13:48:16.248Z,1.50
2022-10-05T13:53:30.125Z,1.63
2022-10-05T13:58:54.161Z,1.50
2022-10-05T14:04:29.875Z,1.77
2022-10-05T14:09:34.950Z,1.58
2022-10-05T14:14:50.438Z,1.70
2022-10-05T14:19:58.419Z,1.70
2022-10-05T14:25:02.937Z,1.92
2022-10-05T14:30:13.413Z,1.55
2022-10-05T14:35:20.637Z,1.80
2022-10-05T14:40:28.237Z,1.70
2022-10-05T14:45:30.225Z,2.10
2022-10-05T14:50:32.288Z,2.03
2022-10-05T14:55:45.890Z,1.98
2022-10-05T15:00:52.015Z,1.67
2022-10-05T15:05:58.836Z,1.80
2022-10-05T15:11:06.421Z,2.40
2022-10-05T15:16:19.938Z,2.55
2022-10-05T15:21:43.520Z,2.20
2022-10-05T15:27:01.019Z,1.98
2022-10-05T15:33:06.887Z,2.35
2022-10-05T15:38:25.856Z,2.40
2022-10-05T15:43:41.109Z,2.47
2022-10-05T15:48:54.274Z,2.85
2022-10-05T15:54:24.833Z,2.72
2022-10-05T15:59:42.898Z,2.45
2022-10-05T16:05:02.417Z,2.75
2022-10-05T16:10:21.364Z,2.88
2022-10-05T16:15:48.664Z,3.53
2022-10-05T16:21:02.318Z,2.60
2022-10-05T16:26:33.930Z,2.83
2022-10-05T16:32:17.185Z,2.58
2022-10-05T16:42:35.729Z,2.38
2022-10-05T16:47:49.870Z,4.55
2022-10-05T16:53:10.517Z,5.68
2022-10-05T16:58:27.363Z,3.28
2022-10-05T17:03:32.191Z,3.97
2022-10-05T17:08:52.681Z,3.42
2022-10-05T17:14:08.164Z,2.80
2022-10-05T17:19:19.482Z,3.35
2022-10-05T17:24:42.052Z,3.13
2022-10-05T17:29:51.750Z,2.20
2022-10-05T17:35:02.707Z,2.92
2022-10-05T17:40:29.131Z,3.50
2022-10-05T17:45:33.755Z,3.38
2022-10-05T17:51:02.868Z,3.53
2022-10-05T17:56:05.009Z,3.20
2022-10-05T18:01:24.903Z,4.10
2022-10-05T18:06:37.542Z,4.50
2022-10-05T18:11:42.881Z,4.43
2022-10-05T18:16:58.163Z,3.78
2022-10-05T18:22:22.912Z,3.72
2022-10-05T18:28:12.219Z,3.03
2022-10-05T18:33:24.010Z,2.90
2022-10-05T18:38:29.049Z,4.15
2022-10-05T18:43:40.722Z,3.47
2022-10-05T18:49:24.643Z,3.80
2022-10-05T18:54:46.977Z,5.88
2022-10-05T18:59:58.966Z,3.83
2022-10-05T19:05:23.788Z,3.30
2022-10-05T19:10:37.070Z,3.60
2022-10-05T19:15:53.205Z,3.63
2022-10-05T19:21:00.914Z,3.60
2022-10-05T19:26:09.105Z,3.13
2022-10-05T19:31:40.000Z,3.00
2022-10-05T19:37:04.454Z,2.40
2022-10-05T19:42:48.238Z,2.90
2022-10-05T19:47:59.280Z,3.70
2022-10-05T19:53:17.124Z,5.50
2022-10-05T19:58:33.752Z,4.72
2022-10-05T20:03:37.965Z,2.90
2022-10-05T20:08:43.674Z,2.10
2022-10-05T20:14:10.175Z,2.47
2022-10-05T20:19:34.535Z,2.83
2022-10-05T20:24:49.969Z,2.17
2022-10-05T20:29:51.850Z,2.80
2022-10-05T20:34:57.185Z,2.40
2022-10-05T20:39:59.523Z,3.95
2022-10-05T20:45:01.426Z,2.95
2022-10-05T20:50:05.773Z,2.50
2022-10-05T20:55:10.791Z,3.72
2022-10-05T21:00:13.656Z,3.30
2022-10-05T21:10:20.027Z,2.65
2022-10-05T21:15:23.415Z,2.65
2022-10-05T21:20:25.109Z,2.00
2022-10-05T21:25:27.006Z,2.10
2022-10-05T21:30:28.688Z,1.67
2022-10-05T21:35:30.524Z,2.40
2022-10-05T21:40:32.212Z,2.53
2022-10-05T21:45:34.338Z,2.20
2022-10-05T21:50:37.609Z,2.58
2022-10-05T21:55:41.352Z,2.53
2022-10-05T22:00:43.121Z,2.10
2022-10-05T22:05:44.925Z,1.70
2022-10-05T22:10:46.817Z,1.70
2022-10-05T22:15:48.561Z,3.00
2022-10-05T22:20:51.256Z,1.98
2022-10-05T22:25:53.574Z,2.42
2022-10-05T22:30:55.938Z,2.38
2022-10-05T22:35:59.516Z,2.57
2022-10-05T22:41:01.300Z,2.22
2022-10-05T22:46:08.647Z,2.42
2022-10-05T22:51:10.383Z,3.22
2022-10-05T22:56:13.613Z,2.13
2022-10-05T23:01:16.571Z,2.50
2022-10-05T23:06:20.349Z,2.05
2022-10-05T23:11:25.794Z,2.55
2022-10-05T23:16:28.373Z,1.92
2022-10-05T23:21:30.594Z,2.53
2022-10-05T23:26:32.788Z,2.63
2022-10-05T23:31:36.474Z,4.30
2022-10-05T23:36:38.209Z,2.97
2022-10-05T23:41:40.458Z,3.13
2022-10-05T23:46:42.100Z,3.33
2022-10-05T23:51:44.860Z,3.97
